Time;durP1;ratioP1;P1;durP2;ratioP2;P2;SDS_P1;SDS_P2;PMS_P1;PMS_P2;Temp;Humidity;BMP_temperature;BMP_pressure;BME280_temperature;BME280_humidity;BME280_pressure;Samples;Min_cycle;Max_cycle;Signal;HPM_P1;HPM_P2
2023/12/13 00:01:30;;;;;;;6.87;3.30;;;8.40;99.90;;;;;;5077489;28;20486;-66
2023/12/13 00:03:57;;;;;;;4.10;2.93;;;8.40;99.90;;;;;;5077818;28;20499;-66
2023/12/13 00:06:25;;;;;;;4.97;3.27;;;8.30;99.90;;;;;;5078505;28;20493;-65
2023/12/13 00:08:52;;;;;;;6.10;3.30;;;8.30;99.90;;;;;;5078420;28;20481;-64
2023/12/13 00:11:20;;;;;;;6.07;3.20;;;8.30;99.90;;;;;;5078066;28;20449;-64
2023/12/13 00:13:51;;;;;;;7.63;3.20;;;8.30;99.90;;;;;;5078553;28;20452;-64
2023/12/13 00:16:21;;;;;;;6.90;4.20;;;8.30;99.90;;;;;;5076587;28;20504;-65
2023/12/13 00:18:48;;;;;;;5.77;3.80;;;8.30;99.90;;;;;;5078574;28;20760;-64
2023/12/13 00:21:17;;;;;;;6.77;3.63;;;8.30;99.90;;;;;;5080513;28;20564;-65
2023/12/13 00:23:45;;;;;;;4.93;3.57;;;8.20;99.90;;;;;;5081630;28;20476;-64
2023/12/13 00:26:15;;;;;;;4.70;3.20;;;8.20;99.90;;;;;;5081551;28;20870;-64
2023/12/13 00:28:43;;;;;;;7.10;3.97;;;8.20;99.90;;;;;;5081182;28;20453;-65
2023/12/13 00:31:12;;;;;;;6.50;4.17;;;8.20;99.90;;;;;;5082174;28;20456;-65
2023/12/13 00:33:39;;;;;;;6.30;3.40;;;8.20;99.90;;;;;;5082035;28;20453;-64
2023/12/13 00:36:07;;;;;;;5.87;4.40;;;8.10;99.90;;;;;;5082964;28;20509;-64
2023/12/13 00:38:35;;;;;;;5.93;3.93;;;8.10;99.90;;;;;;5082312;28;20929;-64
2023/12/13 00:41:02;;;;;;;5.87;3.63;;;8.10;99.90;;;;;;5083442;28;20493;-65
2023/12/13 00:43:29;;;;;;;6.90;3.40;;;8.10;99.90;;;;;;5082106;28;20475;-65
2023/12/13 00:45:57;;;;;;;5.60;3.77;;;8.10;99.90;;;;;;5083443;28;20478;-65
2023/12/13 00:48:25;;;;;;;7.50;3.40;;;8.10;99.90;;;;;;5080539;28;20461;-65
2023/12/13 00:50:52;;;;;;;7.73;5.40;;;8.10;99.90;;;;;;5082912;28;20487;-64
2023/12/13 00:53:20;;;;;;;6.33;4.00;;;8.00;99.90;;;;;;5080257;28;20453;-64
2023/12/13 00:55:49;;;;;;;6.53;3.80;;;8.00;99.90;;;;;;5081885;28;20477;-65
2023/12/13 00:58:17;;;;;;;5.67;3.60;;;7.90;99.90;;;;;;5083459;28;20507;-65
2023/12/13 01:00:44;;;;;;;4.60;3.10;;;7.90;99.90;;;;;;5079825;28;20477;-64
2023/12/13 01:03:11;;;;;;;5.43;3.50;;;7.90;99.90;;;;;;5081656;28;20536;-64
2023/12/13 01:05:40;;;;;;;5.60;3.27;;;7.90;99.90;;;;;;5082626;28;20452;-65
2023/12/13 01:08:07;;;;;;;3.50;2.53;;;7.90;99.90;;;;;;5082776;28;21004;-64
2023/12/13 01:10:34;;;;;;;6.53;3.10;;;7.90;99.90;;;;;;5082266;28;20445;-65
2023/12/13 01:13:02;;;;;;;11.80;5.00;;;7.80;99.90;;;;;;5081111;28;20501;-65
2023/12/13 01:15:29;;;;;;;6.80;3.13;;;7.80;99.90;;;;;;5082605;28;20484;-65
2023/12/13 01:17:56;;;;;;;7.57;3.50;;;7.80;99.90;;;;;;5082690;28;20482;-65
2023/12/13 01:20:24;;;;;;;6.90;3.90;;;7.80;99.90;;;;;;5078741;28;20481;-64
2023/12/13 01:22:52;;;;;;;5.47;3.73;;;7.80;99.90;;;;;;5080632;28;20456;-65
2023/12/13 01:25:19;;;;;;;12.13;4.90;;;7.80;99.90;;;;;;5079698;28;20468;-65
2023/12/13 01:27:47;;;;;;;7.83;3.37;;;7.90;99.90;;;;;;5081115;28;20484;-65
2023/12/13 01:30:14;;;;;;;5.97;2.73;;;7.80;99.90;;;;;;5080651;28;20493;-65
2023/12/13 01:32:41;;;;;;;8.67;3.20;;;7.90;99.90;;;;;;5081820;28;20453;-65
2023/12/13 01:35:09;;;;;;;7.00;3.60;;;7.90;99.90;;;;;;5081527;28;20460;-64
2023/12/13 01:37:36;;;;;;;6.87;3.23;;;7.90;99.90;;;;;;5081140;28;20464;-64
2023/12/13 01:40:07;;;;;;;5.00;3.10;;;7.80;99.90;;;;;;5081088;28;20911;-64
2023/12/13 01:42:38;;;;;;;7.57;3.17;;;7.90;99.90;;;;;;5079941;28;20464;-65
2023/12/13 01:45:07;;;;;;;8.13;3.50;;;7.80;99.90;;;;;;5080634;28;20468;-65
2023/12/13 01:47:34;;;;;;;7.63;3.10;;;7.80;99.90;;;;;;5080710;28;20457;-64
2023/12/13 01:50:02;;;;;;;5.77;3.53;;;7.90;99.90;;;;;;5081419;28;20457;-65
2023/12/13 01:52:30;;;;;;;6.20;4.27;;;7.90;99.90;;;;;;5081449;28;20807;-65
2023/12/13 01:54:57;;;;;;;4.87;3.17;;;7.90;99.90;;;;;;5081864;28;20530;-64
2023/12/13 01:57:26;;;;;;;7.67;3.70;;;7.90;99.90;;;;;;5081424;28;20457;-65
2023/12/13 01:59:53;;;;;;;4.37;3.07;;;7.90;99.90;;;;;;5081669;28;20440;-63
2023/12/13 02:02:21;;;;;;;6.50;3.27;;;7.90;99.90;;;;;;5082868;28;20588;-64
2023/12/13 02:04:49;;;;;;;6.40;3.60;;;7.90;99.90;;;;;;5083410;28;20501;-64
2023/12/13 02:07:17;;;;;;;6.10;2.97;;;7.90;99.90;;;;;;5081875;28;20534;-64
2023/12/13 02:09:44;;;;;;;8.37;3.73;;;7.90;99.90;;;;;;5081094;28;20479;-64
2023/12/13 02:12:11;;;;;;;5.37;3.00;;;7.90;99.90;;;;;;5081009;28;20489;-64
2023/12/13 02:14:41;;;;;;;10.70;3.80;;;7.90;99.90;;;;;;5082000;28;20497;-64
2023/12/13 02:17:08;;;;;;;5.40;3.67;;;7.90;99.90;;;;;;5081938;28;20458;-64
2023/12/13 02:19:38;;;;;;;5.50;3.80;;;7.90;99.90;;;;;;5082424;28;20813;-64
2023/12/13 02:22:08;;;;;;;8.63;3.60;;;7.90;99.90;;;;;;5082622;28;20861;-64
2023/12/13 02:28:05;;;;;;;11.37;4.00;;;7.90;99.90;;;;;;5082026;28;20409;-64
2023/12/13 02:30:33;;;;;;;6.73;3.67;;;7.90;99.90;;;;;;5082659;28;20457;-65
2023/12/13 02:33:00;;;;;;;4.80;3.70;;;7.80;99.90;;;;;;5081931;28;20477;-65
2023/12/13 02:35:27;;;;;;;7.80;4.00;;;7.90;99.90;;;;;;5082412;28;20523;-65
2023/12/13 02:37:56;;;;;;;5.90;3.83;;;7.90;99.90;;;;;;5082038;28;20465;-64
2023/12/13 02:40:23;;;;;;;10.47;4.50;;;7.90;99.90;;;;;;5083462;28;20465;-64
2023/12/13 02:42:50;;;;;;;10.20;4.70;;;7.90;99.90;;;;;;5086095;28;20922;-64
2023/12/13 02:45:20;;;;;;;7.50;3.40;;;7.90;99.90;;;;;;5084945;28;20720;-64
2023/12/13 02:47:49;;;;;;;6.13;4.40;;;7.90;99.90;;;;;;5086205;28;20548;-65
2023/12/13 02:50:17;;;;;;;7.07;3.93;;;7.90;99.90;;;;;;5085318;28;20468;-64
2023/12/13 02:52:44;;;;;;;6.03;3.60;;;7.90;99.90;;;;;;5085903;28;20467;-65
2023/12/13 02:55:12;;;;;;;5.80;4.40;;;7.90;99.90;;;;;;5086319;28;20524;-64
2023/12/13 02:57:40;;;;;;;6.20;3.60;;;7.80;99.90;;;;;;5086026;28;20491;-65
2023/12/13 03:00:08;;;;;;;6.13;3.13;;;7.90;99.90;;;;;;5085434;28;20491;-65
2023/12/13 03:02:36;;;;;;;7.67;3.50;;;7.90;99.90;;;;;;5084945;28;20497;-64
2023/12/13 03:05:03;;;;;;;5.97;3.17;;;7.90;99.90;;;;;;5081027;28;20456;-64
2023/12/13 03:07:30;;;;;;;8.00;2.93;;;7.90;99.90;;;;;;5081630;28;20759;-65
2023/12/13 03:09:58;;;;;;;6.60;3.57;;;7.90;99.90;;;;;;5081653;28;20547;-64
2023/12/13 03:12:26;;;;;;;6.13;3.40;;;7.90;99.90;;;;;;5081268;28;20552;-65
2023/12/13 03:14:53;;;;;;;7.40;3.33;;;7.90;99.90;;;;;;5081507;28;20745;-64
2023/12/13 03:17:21;;;;;;;10.33;3.53;;;7.90;99.90;;;;;;5081212;28;20788;-64
2023/12/13 03:19:48;;;;;;;8.07;3.10;;;7.90;99.90;;;;;;5081340;28;20469;-65
2023/12/13 03:22:15;;;;;;;4.53;2.90;;;7.90;99.90;;;;;;5082115;28;20490;-64
2023/12/13 03:24:42;;;;;;;8.43;3.10;;;7.90;99.90;;;;;;5082466;28;20464;-64
2023/12/13 03:27:09;;;;;;;6.70;3.03;;;7.90;99.90;;;;;;5082559;28;20930;-65
2023/12/13 03:29:38;;;;;;;5.97;3.00;;;7.90;99.90;;;;;;5082923;28;20461;-65
2023/12/13 03:32:05;;;;;;;6.67;3.30;;;7.90;99.90;;;;;;5084004;28;20460;-65
2023/12/13 03:34:32;;;;;;;7.63;3.30;;;7.90;99.90;;;;;;5083796;28;20461;-65
2023/12/13 03:37:00;;;;;;;9.93;3.50;;;7.90;99.90;;;;;;5082171;28;20587;-65
2023/12/13 03:39:27;;;;;;;4.80;3.10;;;7.90;99.90;;;;;;5084318;28;20461;-63
2023/12/13 03:41:54;;;;;;;5.40;3.30;;;7.90;99.90;;;;;;5083912;28;20489;-64
2023/12/13 03:44:21;;;;;;;7.30;3.43;;;7.90;99.90;;;;;;5083908;28;20461;-64
2023/12/13 03:46:49;;;;;;;6.73;3.40;;;7.90;99.90;;;;;;5084664;28;20548;-63
2023/12/13 03:49:17;;;;;;;12.63;4.17;;;7.90;99.90;;;;;;5084176;28;20544;-64
2023/12/13 03:51:46;;;;;;;4.60;3.27;;;7.90;99.90;;;;;;5082922;28;20454;-64
2023/12/13 03:54:13;;;;;;;6.10;3.70;;;7.90;99.90;;;;;;5083592;28;20500;-65
2023/12/13 03:56:40;;;;;;;6.33;4.10;;;7.90;99.90;;;;;;5084478;28;20442;-64
2023/12/13 03:59:08;;;;;;;9.90;5.03;;;7.90;99.90;;;;;;5084246;28;20458;-64
2023/12/13 04:01:35;;;;;;;7.63;4.00;;;7.90;99.90;;;;;;5084181;28;20485;-64
2023/12/13 04:04:03;;;;;;;8.07;4.30;;;7.90;99.90;;;;;;5085035;28;20969;-65
2023/12/13 04:06:30;;;;;;;8.97;4.10;;;7.90;99.90;;;;;;5083719;28;20465;-65
2023/12/13 04:08:58;;;;;;;10.30;4.67;;;7.90;99.90;;;;;;5083272;28;20492;-63
2023/12/13 04:11:25;;;;;;;10.70;4.80;;;7.90;99.90;;;;;;5081364;28;20460;-65
2023/12/13 04:13:52;;;;;;;8.90;3.53;;;7.90;99.90;;;;;;5078710;28;20463;-64
2023/12/13 04:16:20;;;;;;;11.77;3.83;;;7.90;99.90;;;;;;5078899;28;20464;-64
2023/12/13 04:18:47;;;;;;;8.03;4.33;;;7.90;99.90;;;;;;5079163;28;20913;-64
2023/12/13 04:21:15;;;;;;;10.00;4.73;;;8.00;99.90;;;;;;5078918;28;20464;-64
2023/12/13 04:23:42;;;;;;;7.30;3.50;;;7.90;99.90;;;;;;5079729;28;20461;-63
2023/12/13 04:26:10;;;;;;;5.97;3.83;;;7.90;99.90;;;;;;5080798;28;20840;-64
2023/12/13 04:28:37;;;;;;;6.57;3.60;;;7.90;99.90;;;;;;5079954;28;20457;-64
2023/12/13 04:31:05;;;;;;;6.63;3.90;;;7.90;99.90;;;;;;5079555;28;20468;-63
2023/12/13 04:33:33;;;;;;;6.13;3.27;;;7.90;99.90;;;;;;5079235;28;20457;-64
2023/12/13 04:36:01;;;;;;;12.30;4.20;;;7.90;99.90;;;;;;5079139;28;20457;-63
2023/12/13 04:38:29;;;;;;;8.30;3.70;;;7.90;99.90;;;;;;5079666;28;20496;-64
2023/12/13 04:40:56;;;;;;;11.70;3.93;;;7.90;99.90;;;;;;5079830;28;20548;-64
2023/12/13 04:43:24;;;;;;;8.20;3.77;;;7.90;99.90;;;;;;5081877;28;20493;-63
2023/12/13 04:45:52;;;;;;;8.80;4.17;;;7.90;99.90;;;;;;5081611;28;20924;-63
2023/12/13 04:48:19;;;;;;;9.73;4.10;;;7.90;99.90;;;;;;5081939;28;20463;-64
2023/12/13 04:50:46;;;;;;;9.03;3.90;;;7.90;99.90;;;;;;5082566;28;20462;-64
2023/12/13 04:53:13;;;;;;;12.83;4.10;;;7.80;99.90;;;;;;5082907;28;20531;-64
2023/12/13 04:55:42;;;;;;;12.00;4.20;;;7.80;99.90;;;;;;5082499;28;20883;-64
2023/12/13 04:58:09;;;;;;;8.33;4.07;;;7.90;99.90;;;;;;5081973;28;20475;-62
2023/12/13 05:00:36;;;;;;;8.03;3.67;;;7.90;99.90;;;;;;5081331;28;20551;-63
2023/12/13 05:03:03;;;;;;;7.43;4.30;;;7.90;99.90;;;;;;5079094;28;20647;-63
2023/12/13 05:05:31;;;;;;;12.47;4.37;;;7.90;99.90;;;;;;5080737;28;20431;-63
2023/12/13 05:07:58;;;;;;;13.07;4.10;;;7.90;99.90;;;;;;5079419;28;20489;-63
2023/12/13 05:10:25;;;;;;;9.10;3.80;;;7.90;99.90;;;;;;5079583;28;20763;-63
2023/12/13 05:12:53;;;;;;;7.33;4.00;;;7.90;99.90;;;;;;5080168;28;20521;-62
2023/12/13 05:15:20;;;;;;;10.10;4.60;;;7.90;99.90;;;;;;5080172;28;20523;-63
2023/12/13 05:17:48;;;;;;;9.43;4.40;;;7.90;99.90;;;;;;5062453;28;20526;-63
2023/12/13 05:20:15;;;;;;;9.73;4.03;;;7.90;99.90;;;;;;5061263;28;20466;-63
2023/12/13 05:22:42;;;;;;;7.83;4.23;;;7.90;99.90;;;;;;5062021;28;20532;-63
2023/12/13 05:25:09;;;;;;;9.37;3.77;;;7.90;99.90;;;;;;5061374;28;20548;-63
2023/12/13 05:27:36;;;;;;;7.50;4.27;;;7.90;99.90;;;;;;5060475;28;20462;-63
2023/12/13 05:30:06;;;;;;;7.87;4.00;;;7.90;99.90;;;;;;5060359;28;20464;-63
2023/12/13 05:32:34;;;;;;;11.27;4.50;;;8.00;99.90;;;;;;5058032;28;20458;-64
2023/12/13 05:35:01;;;;;;;8.90;4.40;;;7.90;99.90;;;;;;5057925;28;20463;-64
2023/12/13 05:37:29;;;;;;;8.57;4.10;;;7.90;99.90;;;;;;5057112;28;20467;-63
2023/12/13 05:39:56;;;;;;;10.53;5.83;;;7.90;99.90;;;;;;5058034;28;20458;-63
2023/12/13 05:42:23;;;;;;;11.13;5.63;;;7.90;99.90;;;;;;5058174;28;20512;-63
2023/12/13 05:44:50;;;;;;;12.10;5.30;;;7.90;99.90;;;;;;5070060;28;20491;-63
2023/12/13 05:47:19;;;;;;;11.03;5.27;;;7.90;99.90;;;;;;5076815;28;20933;-63
2023/12/13 05:49:46;;;;;;;13.57;4.53;;;7.90;99.90;;;;;;5075895;28;20471;-63
2023/12/13 05:52:13;;;;;;;7.40;4.80;;;7.90;99.90;;;;;;5076036;28;20461;-63
2023/12/13 05:54:40;;;;;;;9.30;5.20;;;7.90;99.90;;;;;;5075807;28;20468;-64
2023/12/13 05:57:08;;;;;;;10.83;5.20;;;7.90;99.90;;;;;;5075341;28;20767;-63
2023/12/13 05:59:35;;;;;;;9.23;5.13;;;7.90;99.90;;;;;;5075666;28;20492;-63
2023/12/13 06:02:03;;;;;;;8.10;4.67;;;7.90;99.90;;;;;;5076698;28;20786;-63
2023/12/13 06:04:31;;;;;;;12.10;5.17;;;7.90;99.90;;;;;;5076073;28;20808;-64
2023/12/13 06:06:58;;;;;;;9.93;5.40;;;7.90;99.90;;;;;;5075457;28;20483;-64
2023/12/13 06:09:26;;;;;;;13.33;5.43;;;7.90;99.90;;;;;;5076175;28;20564;-64
2023/12/13 06:11:53;;;;;;;8.23;5.63;;;7.90;99.90;;;;;;5077498;28;20457;-64
2023/12/13 06:14:20;;;;;;;17.60;10.50;;;7.90;99.90;;;;;;5076199;28;20464;-64
2023/12/13 06:16:47;;;;;;;17.17;10.53;;;7.90;99.90;;;;;;5079969;28;20496;-63
2023/12/13 06:19:14;;;;;;;17.60;15.63;;;7.90;99.90;;;;;;5080309;28;20483;-63
2023/12/13 06:21:43;;;;;;;13.37;7.00;;;7.90;99.90;;;;;;5080308;28;20457;-63
2023/12/13 06:24:10;;;;;;;12.07;5.43;;;7.90;99.90;;;;;;5079333;28;20489;-63
2023/12/13 06:26:38;;;;;;;11.33;6.87;;;7.90;99.90;;;;;;5080290;28;20453;-64
2023/12/13 06:29:05;;;;;;;17.27;7.27;;;7.90;99.90;;;;;;5081117;28;20457;-64
2023/12/13 06:31:32;;;;;;;15.43;4.90;;;8.00;99.90;;;;;;5081155;28;20457;-63
2023/12/13 06:33:59;;;;;;;9.00;4.93;;;8.00;99.90;;;;;;5081671;28;20453;-63
2023/12/13 06:36:26;;;;;;;9.27;5.83;;;8.00;99.90;;;;;;5081663;28;20548;-63
2023/12/13 06:38:55;;;;;;;10.57;5.00;;;8.00;99.90;;;;;;5081837;28;20468;-64
2023/12/13 06:41:22;;;;;;;10.50;5.57;;;7.90;99.90;;;;;;5080367;28;20468;-65
2023/12/13 06:43:49;;;;;;;13.77;6.07;;;7.90;99.90;;;;;;5076026;28;20914;-65
2023/12/13 06:46:16;;;;;;;10.77;4.60;;;7.90;99.90;;;;;;5081096;28;20453;-66
2023/12/13 06:48:43;;;;;;;10.30;4.87;;;7.90;99.90;;;;;;5070359;28;20450;-65
2023/12/13 06:51:11;;;;;;;14.50;4.87;;;7.90;99.90;;;;;;5076097;28;20821;-65
2023/12/13 06:53:38;;;;;;;10.80;4.97;;;7.90;99.90;;;;;;5080632;28;20552;-66
2023/12/13 06:56:08;;;;;;;13.20;5.37;;;7.90;99.90;;;;;;5080098;28;20780;-66
2023/12/13 06:58:35;;;;;;;10.63;4.97;;;7.90;99.90;;;;;;5062309;28;20465;-66
2023/12/13 07:01:01;;;;;;;14.73;5.70;;;7.90;99.90;;;;;;5080602;28;20462;-65
2023/12/13 07:03:28;;;;;;;9.17;4.77;;;7.90;99.90;;;;;;5080659;28;20485;-65
2023/12/13 07:05:56;;;;;;;7.50;4.77;;;7.90;99.90;;;;;;5080782;28;20789;-65
2023/12/13 07:08:23;;;;;;;14.20;5.93;;;7.90;99.90;;;;;;5080373;28;20799;-65
2023/12/13 07:10:50;;;;;;;9.67;4.27;;;7.90;99.90;;;;;;5080687;28;20631;-66
2023/12/13 07:13:19;;;;;;;12.93;4.37;;;7.90;99.90;;;;;;5081025;28;20503;-66
2023/12/13 07:15:46;;;;;;;15.83;5.67;;;7.80;99.90;;;;;;5080571;28;20935;-66
2023/12/13 07:18:13;;;;;;;8.40;4.93;;;7.70;99.90;;;;;;5080754;28;20464;-65
2023/12/13 07:20:41;;;;;;;11.30;4.90;;;7.80;99.90;;;;;;5080332;28;20439;-66
2023/12/13 07:23:08;;;;;;;13.30;4.90;;;7.80;99.90;;;;;;5079971;28;20467;-65
2023/12/13 07:25:35;;;;;;;10.20;4.63;;;7.70;99.90;;;;;;5079584;28;20462;-66
2023/12/13 07:28:03;;;;;;;13.33;4.90;;;7.70;99.90;;;;;;5080056;28;20464;-66
2023/12/13 07:30:31;;;;;;;10.90;4.87;;;7.70;99.90;;;;;;5079248;28;20527;-66
2023/12/13 07:32:58;;;;;;;10.00;5.40;;;7.70;99.90;;;;;;5078544;28;20453;-65
2023/12/13 07:35:26;;;;;;;13.40;4.97;;;7.70;99.90;;;;;;5093392;28;20456;-66
2023/12/13 07:37:54;;;;;;;15.57;9.00;;;7.70;99.90;;;;;;5080008;28;20469;-65
2023/12/13 07:40:21;;;;;;;15.17;9.10;;;7.70;99.90;;;;;;5079091;28;20458;-66
2023/12/13 07:42:48;;;;;;;15.53;7.33;;;7.80;99.90;;;;;;5079385;28;20503;-66
2023/12/13 07:45:16;;;;;;;20.90;10.87;;;7.70;99.90;;;;;;5079265;28;20466;-67
2023/12/13 07:47:46;;;;;;;18.90;7.57;;;7.70;99.90;;;;;;5078375;28;20457;-66
2023/12/13 07:50:13;;;;;;;24.77;12.87;;;7.80;99.90;;;;;;5078477;28;20461;-66
2023/12/13 07:52:40;;;;;;;19.73;9.97;;;7.70;99.90;;;;;;5078494;28;20463;-66
2023/12/13 07:55:08;;;;;;;27.90;13.50;;;7.70;99.90;;;;;;5078775;28;20458;-66
2023/12/13 07:57:36;;;;;;;35.97;17.30;;;7.70;99.90;;;;;;5079447;28;20549;-66
2023/12/13 08:00:04;;;;;;;35.43;15.30;;;7.80;99.90;;;;;;5078131;28;20936;-66
2023/12/13 08:02:31;;;;;;;30.40;13.93;;;7.80;99.90;;;;;;5077846;28;20504;-66
2023/12/13 08:05:00;;;;;;;12.60;6.00;;;7.80;99.90;;;;;;5077006;28;20818;-66
2023/12/13 08:07:27;;;;;;;18.67;8.63;;;7.90;99.90;;;;;;5077020;28;20449;-65
2023/12/13 08:09:59;;;;;;;13.43;4.93;;;7.80;99.90;;;;;;5076496;28;20461;-65
2023/12/13 08:12:26;;;;;;;10.20;4.40;;;7.90;99.90;;;;;;5073881;28;20456;-65
2023/12/13 08:14:53;;;;;;;11.07;5.03;;;7.90;99.90;;;;;;5076195;28;20453;-65
2023/12/13 08:17:21;;;;;;;18.07;9.90;;;7.90;99.90;;;;;;5075017;28;20464;-65
2023/12/13 08:19:48;;;;;;;26.93;12.43;;;7.90;99.90;;;;;;5072609;28;20481;-65
2023/12/13 08:22:17;;;;;;;17.20;10.57;;;7.90;99.90;;;;;;5074488;28;20592;-65
2023/12/13 08:24:44;;;;;;;18.10;8.00;;;7.90;99.90;;;;;;5075899;28;20491;-65
2023/12/13 08:27:12;;;;;;;15.83;9.20;;;7.90;99.90;;;;;;5072453;28;20519;-64
2023/12/13 08:29:40;;;;;;;26.73;11.97;;;7.90;99.90;;;;;;5074950;28;20466;-64
2023/12/13 08:32:07;;;;;;;18.80;8.60;;;8.00;99.90;;;;;;5072950;28;20974;-64
2023/12/13 08:34:35;;;;;;;10.30;5.50;;;8.00;99.90;;;;;;5074984;28;20449;-65
2023/12/13 08:37:02;;;;;;;12.30;4.73;;;8.00;99.90;;;;;;5072644;28;20523;-66
2023/12/13 08:39:31;;;;;;;11.10;5.33;;;8.00;99.90;;;;;;5075645;28;20459;-66
2023/12/13 08:41:58;;;;;;;16.23;7.53;;;8.00;99.90;;;;;;5074393;28;20465;-66
2023/12/13 08:44:25;;;;;;;18.77;9.63;;;8.10;99.90;;;;;;5073895;28;20511;-66
2023/12/13 08:46:53;;;;;;;15.00;7.50;;;8.20;99.90;;;;;;5077034;28;20572;-65
2023/12/13 08:49:20;;;;;;;15.80;10.17;;;8.30;99.90;;;;;;5076598;28;20457;-65
2023/12/13 08:51:47;;;;;;;15.03;8.80;;;8.30;99.90;;;;;;5078180;28;20461;-65
2023/12/13 08:54:15;;;;;;;10.70;4.77;;;8.30;99.90;;;;;;5076191;28;20469;-66
2023/12/13 08:56:44;;;;;;;18.80;8.43;;;8.30;99.90;;;;;;5077181;28;20469;-65
2023/12/13 08:59:11;;;;;;;17.40;6.50;;;8.40;99.90;;;;;;5077806;28;20467;-66
2023/12/13 09:01:39;;;;;;;8.23;5.57;;;8.40;99.90;;;;;;5075291;28;20603;-66
2023/12/13 09:04:06;;;;;;;8.57;4.30;;;8.40;99.90;;;;;;5076715;28;20918;-65
2023/12/13 09:06:34;;;;;;;11.63;5.90;;;8.50;99.90;;;;;;5077282;28;20432;-66
2023/12/13 09:09:03;;;;;;;9.57;4.67;;;8.60;99.90;;;;;;5076759;28;20477;-66
2023/12/13 09:11:31;;;;;;;10.63;4.60;;;8.60;99.90;;;;;;5076656;28;20457;-66
2023/12/13 09:14:01;;;;;;;9.63;3.90;;;8.60;99.90;;;;;;5077031;28;20590;-66
2023/12/13 09:16:28;;;;;;;10.40;4.00;;;8.50;99.90;;;;;;5076926;28;20483;-65
2023/12/13 09:18:56;;;;;;;10.07;3.70;;;8.60;99.90;;;;;;5076366;28;20472;-66
2023/12/13 09:21:24;;;;;;;7.17;3.97;;;8.50;99.90;;;;;;5073809;28;20453;-66
2023/12/13 09:23:51;;;;;;;7.60;3.67;;;8.50;99.90;;;;;;5077277;28;20489;-66
2023/12/13 09:26:19;;;;;;;5.20;3.23;;;8.60;99.90;;;;;;5076603;28;20817;-66
2023/12/13 09:28:46;;;;;;;8.50;3.90;;;8.60;99.90;;;;;;5074708;28;20766;-65
2023/12/13 09:31:15;;;;;;;8.23;3.30;;;8.60;99.90;;;;;;5076786;28;20548;-66
2023/12/13 09:33:42;;;;;;;13.90;4.00;;;8.60;99.90;;;;;;5076333;28;20449;-67
2023/12/13 09:36:10;;;;;;;8.57;4.07;;;8.60;99.90;;;;;;5076440;28;20853;-66
2023/12/13 09:38:37;;;;;;;8.97;4.23;;;8.60;99.90;;;;;;5076409;28;20432;-66
2023/12/13 09:41:06;;;;;;;12.47;4.83;;;8.60;99.90;;;;;;5074294;28;20885;-66
2023/12/13 09:43:35;;;;;;;10.20;4.20;;;8.60;99.90;;;;;;5076114;28;20493;-66
2023/12/13 09:46:05;;;;;;;11.50;4.07;;;8.60;99.90;;;;;;5076437;28;20443;-66
2023/12/13 09:48:36;;;;;;;9.33;3.90;;;8.60;99.90;;;;;;5075852;28;20953;-66
2023/12/13 09:51:06;;;;;;;7.60;3.83;;;8.60;99.90;;;;;;5072241;28;20467;-67
2023/12/13 09:53:36;;;;;;;10.87;4.23;;;8.70;99.90;;;;;;5075661;28;20559;-67
2023/12/13 09:56:03;;;;;;;7.83;3.90;;;8.70;99.90;;;;;;5075075;28;20465;-66
2023/12/13 09:58:31;;;;;;;9.53;3.80;;;8.70;99.90;;;;;;5076265;28;20464;-67
2023/12/13 10:00:58;;;;;;;9.87;4.23;;;8.70;99.90;;;;;;5075591;28;20767;-67
2023/12/13 10:03:26;;;;;;;8.43;4.00;;;8.70;99.90;;;;;;5074607;28;20488;-66
2023/12/13 10:05:58;;;;;;;12.63;4.67;;;8.70;99.90;;;;;;5075552;28;20536;-67
2023/12/13 10:08:25;;;;;;;12.10;4.60;;;8.70;99.90;;;;;;5075577;28;20560;-67
2023/12/13 10:10:53;;;;;;;8.50;4.17;;;8.60;99.90;;;;;;5076086;28;20457;-67
2023/12/13 10:13:20;;;;;;;12.73;4.33;;;8.60;99.90;;;;;;5075661;28;20800;-66
2023/12/13 10:15:47;;;;;;;7.83;3.83;;;8.60;99.90;;;;;;5075965;28;20500;-66
2023/12/13 10:18:16;;;;;;;7.77;3.37;;;8.60;99.90;;;;;;5076183;28;20972;-66
2023/12/13 10:20:46;;;;;;;10.60;3.97;;;8.60;99.90;;;;;;5076358;28;20457;-66
2023/12/13 10:23:15;;;;;;;8.00;3.93;;;8.70;99.90;;;;;;5076157;28;20467;-66
2023/12/13 10:25:42;;;;;;;10.20;4.07;;;8.80;99.90;;;;;;5076606;28;20507;-67
2023/12/13 10:28:09;;;;;;;11.60;5.00;;;8.90;99.90;;;;;;5076542;28;20457;-66
2023/12/13 10:30:37;;;;;;;7.23;4.43;;;9.00;99.90;;;;;;5076560;28;20514;-66
2023/12/13 10:33:04;;;;;;;11.93;5.20;;;9.10;99.90;;;;;;5057449;28;20548;-66
2023/12/13 10:35:31;;;;;;;7.73;4.40;;;9.10;99.90;;;;;;5076652;28;20891;-66
2023/12/13 10:38:03;;;;;;;9.80;4.90;;;9.20;99.90;;;;;;5076305;28;20453;-66
2023/12/13 10:40:32;;;;;;;12.57;4.67;;;9.40;99.90;;;;;;5076334;28;20461;-66
2023/12/13 10:43:00;;;;;;;7.27;4.37;;;9.70;99.90;;;;;;5075535;28;20651;-66
2023/12/13 10:45:27;;;;;;;6.07;3.40;;;9.80;99.90;;;;;;5076131;28;20493;-66
2023/12/13 10:48:01;;;;;;;6.80;3.77;;;10.00;99.90;;;;;;5074992;28;20556;-66
2023/12/13 10:50:29;;;;;;;8.70;3.50;;;10.10;99.90;;;;;;5076594;28;20465;-66
2023/12/13 10:52:57;;;;;;;6.50;3.20;;;10.10;99.90;;;;;;5074912;28;20548;-66
2023/12/13 10:55:25;;;;;;;4.03;3.10;;;9.80;99.90;;;;;;5076218;28;20457;-66
2023/12/13 10:57:54;;;;;;;5.27;3.13;;;9.80;99.90;;;;;;5076506;28;20455;-67
2023/12/13 11:00:25;;;;;;;9.70;3.10;;;9.70;99.90;;;;;;5075585;28;20890;-66
2023/12/13 11:03:02;;;;;;;8.47;3.23;;;9.60;99.90;;;;;;5078509;28;20460;-66
2023/12/13 11:05:29;;;;;;;7.93;3.37;;;9.60;99.90;;;;;;5078259;28;20485;-65
2023/12/13 11:07:56;;;;;;;8.73;3.50;;;9.60;99.90;;;;;;5079385;28;20568;-65
2023/12/13 11:10:24;;;;;;;10.90;4.17;;;9.60;99.90;;;;;;5079297;28;20458;-65
2023/12/13 11:12:54;;;;;;;7.03;3.90;;;9.70;99.90;;;;;;5079955;28;20453;-65
2023/12/13 11:15:22;;;;;;;5.83;3.53;;;9.80;99.90;;;;;;5077078;28;20540;-65
2023/12/13 11:17:54;;;;;;;9.97;3.93;;;9.70;99.90;;;;;;5079204;28;20438;-65
2023/12/13 11:20:21;;;;;;;10.10;4.47;;;9.60;99.90;;;;;;5076831;28;20495;-65
2023/12/13 11:22:49;;;;;;;9.13;4.20;;;9.50;99.90;;;;;;5080233;28;20453;-64
2023/12/13 11:25:17;;;;;;;11.17;4.43;;;9.60;99.90;;;;;;5078981;28;20471;-65
2023/12/13 11:27:57;;;;;;;14.63;4.80;;;9.60;99.90;;;;;;5079407;28;20457;-65
2023/12/13 11:30:24;;;;;;;14.23;9.40;;;9.60;99.90;;;;;;5074662;28;20458;-66
2023/12/13 11:32:52;;;;;;;9.97;4.47;;;9.60;99.90;;;;;;5078607;28;20468;-67
2023/12/13 11:35:21;;;;;;;10.33;4.07;;;9.60;99.90;;;;;;5075953;28;20458;-66
2023/12/13 11:37:50;;;;;;;9.40;4.83;;;9.70;99.90;;;;;;5079100;28;20890;-66
2023/12/13 11:40:18;;;;;;;7.33;3.40;;;9.60;99.90;;;;;;5077023;28;20449;-66
2023/12/13 11:42:46;;;;;;;9.93;3.60;;;9.60;99.90;;;;;;5079140;28;20453;-65
2023/12/13 11:45:15;;;;;;;6.90;3.60;;;9.60;99.90;;;;;;5079303;28;20568;-66
2023/12/13 11:47:47;;;;;;;7.50;3.07;;;9.70;99.90;;;;;;5079202;28;20450;-65
2023/12/13 11:50:16;;;;;;;11.93;4.17;;;9.60;99.90;;;;;;5079012;28;20502;-65
2023/12/13 11:52:45;;;;;;;15.20;9.23;;;9.60;99.90;;;;;;5079502;28;20493;-65
2023/12/13 11:55:13;;;;;;;9.80;5.63;;;9.40;99.90;;;;;;5078857;28;20954;-66
2023/12/13 11:57:40;;;;;;;10.60;3.43;;;9.40;99.90;;;;;;5078943;28;20445;-65
2023/12/13 12:00:09;;;;;;;6.67;3.47;;;9.40;99.90;;;;;;5079564;28;20445;-65
2023/12/13 12:02:38;;;;;;;9.60;3.70;;;9.40;99.90;;;;;;5074625;28;20441;-66
2023/12/13 12:05:07;;;;;;;8.00;3.70;;;9.40;99.90;;;;;;5078770;28;20485;-66
2023/12/13 12:07:35;;;;;;;5.87;3.30;;;9.40;99.90;;;;;;5077332;28;20984;-66
2023/12/13 12:10:03;;;;;;;9.80;3.40;;;9.30;99.90;;;;;;5078627;28;20467;-66
2023/12/13 12:12:31;;;;;;;8.80;4.03;;;9.30;99.90;;;;;;5074375;28;20601;-66
2023/12/13 12:14:59;;;;;;;10.63;3.63;;;9.30;99.90;;;;;;5076264;28;20465;-66
2023/12/13 12:17:27;;;;;;;5.87;3.33;;;9.30;99.90;;;;;;5078702;28;20542;-66
2023/12/13 12:19:59;;;;;;;9.07;3.67;;;9.20;99.90;;;;;;5078100;28;20549;-66
2023/12/13 12:22:28;;;;;;;7.27;3.33;;;9.30;99.90;;;;;;5078705;28;20460;-67
2023/12/13 12:24:56;;;;;;;8.30;3.80;;;9.30;99.90;;;;;;5077981;28;20485;-66
2023/12/13 12:27:24;;;;;;;7.53;4.00;;;9.40;99.90;;;;;;5077859;28;20798;-67
2023/12/13 12:29:52;;;;;;;14.93;4.10;;;9.40;99.90;;;;;;5078194;28;20548;-66
2023/12/13 12:32:19;;;;;;;9.70;4.10;;;9.30;99.90;;;;;;5078390;28;20449;-67
2023/12/13 12:34:48;;;;;;;8.50;4.20;;;9.40;99.90;;;;;;5077976;28;20486;-67
2023/12/13 12:37:17;;;;;;;7.57;3.83;;;9.40;99.90;;;;;;5078173;28;20571;-66
2023/12/13 12:39:45;;;;;;;13.33;5.17;;;9.50;99.90;;;;;;5077918;28;20536;-67
2023/12/13 12:42:12;;;;;;;8.53;4.20;;;9.60;99.90;;;;;;5077925;28;20544;-67
2023/12/13 12:44:39;;;;;;;9.17;3.60;;;9.60;99.90;;;;;;5077792;28;20568;-68
2023/12/13 12:47:07;;;;;;;10.63;3.70;;;9.70;99.90;;;;;;5077589;28;20457;-70
2023/12/13 12:49:34;;;;;;;6.47;3.43;;;9.90;99.90;;;;;;5077794;28;20434;-70
2023/12/13 12:52:02;;;;;;;7.73;3.53;;;9.80;99.90;;;;;;5077625;28;20453;-70
2023/12/13 12:54:30;;;;;;;7.10;3.80;;;9.80;99.90;;;;;;5078544;28;20461;-69
2023/12/13 12:56:58;;;;;;;9.60;3.80;;;9.90;99.90;;;;;;5075467;28;20891;-69
2023/12/13 12:59:25;;;;;;;9.20;3.90;;;9.80;99.90;;;;;;5078110;28;20453;-70